createdAt,value
2016-08-30T00:00:42.671Z,1039.53
2016-08-30T00:01:40.983Z,1039.53
2016-08-30T00:02:40.979Z,1039.56
2016-08-30T00:03:40.973Z,1039.55
2016-08-30T00:04:40.971Z,1039.56
2016-08-30T00:05:41.306Z,1039.56
2016-08-30T00:06:40.962Z,1039.55
2016-08-30T00:07:40.957Z,1039.55
2016-08-30T00:08:40.953Z,1039.52
2016-08-30T00:09:41.226Z,1039.52
2016-08-30T00:10:40.949Z,1039.53
2016-08-30T00:11:40.940Z,1039.55
2016-08-30T00:12:42.318Z,1039.52
2016-08-30T00:13:42.606Z,1039.51
2016-08-30T00:14:40.929Z,1039.56
2016-08-30T00:15:40.929Z,1039.59
2016-08-30T00:16:40.925Z,1039.61
2016-08-30T00:17:41.318Z,1039.62
2016-08-30T00:18:40.910Z,1039.61
2016-08-30T00:19:41.112Z,1039.65
2016-08-30T00:20:40.907Z,1039.65
2016-08-30T00:21:40.896Z,1039.66
2016-08-30T00:22:40.899Z,1039.66
2016-08-30T00:23:40.889Z,1039.7
2016-08-30T00:24:40.884Z,1039.72
2016-08-30T00:25:40.881Z,1039.72
2016-08-30T00:26:40.882Z,1039.74
2016-08-30T00:27:40.872Z,1039.73
2016-08-30T00:28:40.874Z,1039.73
2016-08-30T00:29:40.864Z,1039.73
2016-08-30T00:30:40.857Z,1039.76
2016-08-30T00:31:40.857Z,1039.77
2016-08-30T00:32:40.849Z,1039.81
2016-08-30T00:33:40.844Z,1039.8
2016-08-30T00:34:40.847Z,1039.8
2016-08-30T00:35:40.836Z,1039.84
2016-08-30T00:36:40.839Z,1039.79
2016-08-30T00:37:40.827Z,1039.79
2016-08-30T00:38:40.824Z,1039.84
2016-08-30T00:39:40.819Z,1039.84
2016-08-30T00:40:40.819Z,1039.88
2016-08-30T00:41:40.812Z,1039.84
2016-08-30T00:42:40.811Z,1039.86
2016-08-30T00:43:40.800Z,1039.85
2016-08-30T00:44:40.802Z,1039.87
2016-08-30T00:45:40.792Z,1039.89
2016-08-30T00:46:40.794Z,1039.89
2016-08-30T00:47:40.781Z,1039.9
2016-08-30T00:48:40.778Z,1039.92
2016-08-30T00:49:40.775Z,1039.92
2016-08-30T00:50:40.768Z,1039.96
2016-08-30T00:51:40.770Z,1040
2016-08-30T00:52:40.760Z,1040.01
2016-08-30T00:53:40.755Z,1040.02
2016-08-30T00:54:40.766Z,1039.98
2016-08-30T00:55:40.752Z,1040
2016-08-30T00:56:40.742Z,1039.94
2016-08-30T00:57:40.736Z,1039.99
2016-08-30T00:58:40.733Z,1039.95
2016-08-30T00:59:40.727Z,1039.99
2016-08-30T01:00:40.725Z,1040
2016-08-30T01:01:40.720Z,1040.03
2016-08-30T01:02:40.719Z,1040.03
2016-08-30T01:03:40.708Z,1040.04
2016-08-30T01:04:40.704Z,1040.03
2016-08-30T01:05:40.706Z,1040.1
2016-08-30T01:06:40.701Z,1040.07
2016-08-30T01:07:40.696Z,1040.11
2016-08-30T01:08:40.687Z,1040.07
2016-08-30T01:09:40.680Z,1040.06
2016-08-30T01:10:40.675Z,1040.07
2016-08-30T01:11:40.671Z,1040.05
2016-08-30T01:12:40.666Z,1040.09
2016-08-30T01:13:40.661Z,1040.08
2016-08-30T01:14:40.664Z,1040.08
2016-08-30T01:15:40.652Z,1040.12
2016-08-30T01:16:40.647Z,1040.14
2016-08-30T01:17:40.793Z,1040.13
2016-08-30T01:18:40.641Z,1040.14
2016-08-30T01:19:40.636Z,1040.16
2016-08-30T01:20:40.628Z,1040.17
2016-08-30T01:21:40.999Z,1040.18
2016-08-30T01:22:42.113Z,1040.2
2016-08-30T01:23:40.613Z,1040.26
2016-08-30T01:24:40.611Z,1040.29
2016-08-30T01:25:40.605Z,1040.32
2016-08-30T01:26:40.601Z,1040.32
2016-08-30T01:27:40.594Z,1040.33
2016-08-30T01:28:40.596Z,1040.34
2016-08-30T01:29:40.629Z,1040.39
2016-08-30T01:30:40.582Z,1040.39
2016-08-30T01:31:40.575Z,1040.4
2016-08-30T01:32:40.571Z,1040.41
2016-08-30T01:33:40.572Z,1040.41
2016-08-30T01:34:40.561Z,1040.43
2016-08-30T01:35:41.121Z,1040.45
2016-08-30T01:36:40.660Z,1040.46
2016-08-30T01:37:40.546Z,1040.46
2016-08-30T01:38:40.540Z,1040.52
2016-08-30T01:39:40.543Z,1040.5
2016-08-30T01:40:40.538Z,1040.52
2016-08-30T01:41:40.528Z,1040.5
2016-08-30T01:42:40.521Z,1040.53
2016-08-30T01:43:40.518Z,1040.52
2016-08-30T01:44:40.512Z,1040.53
2016-08-30T01:45:40.505Z,1040.53
2016-08-30T01:46:40.507Z,1040.53
2016-08-30T01:47:40.498Z,1040.53
2016-08-30T01:48:40.497Z,1040.49
2016-08-30T01:49:40.487Z,1040.55
2016-08-30T01:50:40.487Z,1040.52
2016-08-30T01:51:40.477Z,1040.57
2016-08-30T01:52:40.470Z,1040.57
2016-08-30T01:53:40.465Z,1040.57
2016-08-30T01:54:40.461Z,1040.6
2016-08-30T01:55:40.456Z,1040.6
2016-08-30T01:56:40.450Z,1040.63
2016-08-30T01:57:40.446Z,1040.62
2016-08-30T01:58:40.442Z,1040.61
2016-08-30T01:59:40.438Z,1040.66
2016-08-30T02:00:40.429Z,1040.65
2016-08-30T02:01:40.424Z,1040.67
2016-08-30T02:02:40.419Z,1040.68
2016-08-30T02:03:40.415Z,1040.74
2016-08-30T02:04:40.415Z,1040.71
2016-08-30T02:05:40.403Z,1040.73
2016-08-30T02:06:40.405Z,1040.79
2016-08-30T02:07:40.395Z,1040.77
2016-08-30T02:08:40.388Z,1040.81
2016-08-30T02:09:40.383Z,1040.83
2016-08-30T02:10:40.384Z,1040.81
2016-08-30T02:11:40.374Z,1040.81
2016-08-30T02:12:40.367Z,1040.84
2016-08-30T02:13:40.368Z,1040.88
2016-08-30T02:14:40.357Z,1040.86
2016-08-30T02:15:40.350Z,1040.87
2016-08-30T02:16:40.348Z,1040.91
2016-08-30T02:17:40.341Z,1040.92
2016-08-30T02:18:40.341Z,1040.93
2016-08-30T02:19:40.329Z,1040.95
2016-08-30T02:20:40.331Z,1040.98
2016-08-30T02:21:40.320Z,1040.95
2016-08-30T02:22:40.313Z,1041.01
2016-08-30T02:23:40.311Z,1040.98
2016-08-30T02:24:40.304Z,1041
2016-08-30T02:25:40.310Z,1041.05
2016-08-30T02:26:40.298Z,1041.06
2016-08-30T02:27:40.288Z,1041.06
2016-08-30T02:28:40.283Z,1041.1
2016-08-30T02:29:40.281Z,1041.08
2016-08-30T02:30:40.276Z,1041.07
2016-08-30T02:31:40.271Z,1041.07
2016-08-30T02:32:40.260Z,1041.09
2016-08-30T02:33:40.260Z,1041.09
2016-08-30T02:34:40.249Z,1041.11
2016-08-30T02:35:40.350Z,1041.14
2016-08-30T02:36:40.241Z,1041.17
2016-08-30T02:37:40.232Z,1041.15
2016-08-30T02:38:40.233Z,1041.17
2016-08-30T02:40:40.222Z,1041.17
2016-08-30T02:41:40.211Z,1041.21
2016-08-30T02:42:40.207Z,1041.2
2016-08-30T02:43:40.200Z,1041.27
2016-08-30T02:44:40.194Z,1041.22
2016-08-30T02:45:40.190Z,1041.29
2016-08-30T02:46:40.289Z,1041.28
2016-08-30T02:47:40.180Z,1041.33
2016-08-30T02:49:40.169Z,1041.38
2016-08-30T02:50:40.168Z,1041.42
2016-08-30T02:51:40.156Z,1041.39
2016-08-30T02:52:40.152Z,1041.39
2016-08-30T02:53:40.147Z,1041.43
2016-08-30T02:54:40.139Z,1041.41
2016-08-30T02:55:40.139Z,1041.41
2016-08-30T02:56:40.129Z,1041.37
2016-08-30T02:57:40.125Z,1041.39
2016-08-30T02:58:40.118Z,1041.41
2016-08-30T02:59:40.117Z,1041.41
2016-08-30T03:00:40.106Z,1041.44
2016-08-30T03:01:40.100Z,1041.44
2016-08-30T03:02:40.094Z,1041.45
2016-08-30T03:03:40.089Z,1041.51
2016-08-30T03:04:40.082Z,1041.51
2016-08-30T03:05:40.077Z,1041.55
2016-08-30T03:06:40.071Z,1041.55
2016-08-30T03:07:40.065Z,1041.57
2016-08-30T03:08:40.069Z,1041.58
2016-08-30T03:09:40.054Z,1041.57
2016-08-30T03:10:40.048Z,1041.6
2016-08-30T03:11:40.049Z,1041.59
2016-08-30T03:12:40.037Z,1041.62
2016-08-30T03:13:40.032Z,1041.61
2016-08-30T03:14:40.027Z,1041.64
2016-08-30T03:15:40.026Z,1041.62
2016-08-30T03:16:40.016Z,1041.65
2016-08-30T03:17:40.020Z,1041.67
2016-08-30T03:18:40.003Z,1041.65
2016-08-30T03:19:39.996Z,1041.69
2016-08-30T03:20:39.989Z,1041.69
2016-08-30T03:21:39.991Z,1041.73
2016-08-30T03:22:39.981Z,1041.71
2016-08-30T03:23:39.979Z,1041.75
2016-08-30T03:24:39.973Z,1041.72
2016-08-30T03:25:39.961Z,1041.73
2016-08-30T03:26:39.960Z,1041.72
2016-08-30T03:27:39.950Z,1041.71
2016-08-30T03:28:39.949Z,1041.71
2016-08-30T03:29:39.938Z,1041.74
2016-08-30T03:30:39.932Z,1041.74
2016-08-30T03:31:39.927Z,1041.76
2016-08-30T03:32:39.920Z,1041.77
2016-08-30T03:33:39.914Z,1041.79
2016-08-30T03:34:39.908Z,1041.78
2016-08-30T03:35:39.902Z,1041.81
2016-08-30T03:36:39.902Z,1041.82
2016-08-30T03:37:39.890Z,1041.84
2016-08-30T03:38:39.888Z,1041.82
2016-08-30T03:39:39.884Z,1041.86
2016-08-30T03:40:39.873Z,1041.89
2016-08-30T03:41:39.867Z,1041.9
2016-08-30T03:42:39.867Z,1041.92
2016-08-30T03:43:39.857Z,1041.92
2016-08-30T03:44:39.855Z,1041.91
2016-08-30T03:45:39.849Z,1041.93
2016-08-30T03:46:39.836Z,1041.98
2016-08-30T03:47:39.831Z,1041.98
2016-08-30T03:48:39.825Z,1041.92
2016-08-30T03:49:39.821Z,1041.9
2016-08-30T03:50:39.812Z,1041.92
2016-08-30T03:51:39.809Z,1041.96
2016-08-30T03:52:39.801Z,1041.99
2016-08-30T03:53:40.644Z,1041.99
2016-08-30T03:54:40.445Z,1042.03
2016-08-30T03:55:40.233Z,1042.01
2016-08-30T03:56:39.780Z,1042.01
2016-08-30T03:57:39.776Z,1042
2016-08-30T03:58:39.765Z,1042
2016-08-30T03:59:39.759Z,1042
2016-08-30T04:00:39.754Z,1041.99
2016-08-30T04:01:39.994Z,1041.97
2016-08-30T04:02:39.740Z,1042
2016-08-30T04:03:39.735Z,1042
2016-08-30T04:04:40.490Z,1042
2016-08-30T04:05:39.723Z,1042.02
2016-08-30T04:06:41.092Z,1042.01
2016-08-30T04:07:39.710Z,1042.03
2016-08-30T04:08:41.207Z,1042.03
2016-08-30T04:09:39.701Z,1042.03
2016-08-30T04:10:39.691Z,1042.04
2016-08-30T04:11:39.685Z,1042.05
2016-08-30T04:12:39.679Z,1042.05
2016-08-30T04:13:39.673Z,1042.04
2016-08-30T04:14:39.667Z,1042.05
2016-08-30T04:15:39.660Z,1042.07
2016-08-30T04:16:39.660Z,1042.06
2016-08-30T04:17:39.649Z,1042.05
2016-08-30T04:18:39.643Z,1042.08
2016-08-30T04:19:39.637Z,1042.05
2016-08-30T04:20:39.636Z,1042.05
2016-08-30T04:21:39.626Z,1042.06
2016-08-30T04:22:39.625Z,1042.06
2016-08-30T04:23:39.612Z,1042.04
2016-08-30T04:24:39.606Z,1042.04
2016-08-30T04:25:39.602Z,1042.02
2016-08-30T04:26:39.601Z,1042.03
2016-08-30T04:27:39.589Z,1042
2016-08-30T04:28:39.589Z,1041.94
2016-08-30T04:29:39.576Z,1041.85
2016-08-30T04:30:39.572Z,1041.79
2016-08-30T04:31:39.564Z,1041.64
2016-08-30T04:32:39.566Z,1041.53
2016-08-30T04:33:39.553Z,1041.42
2016-08-30T04:34:39.552Z,1041.32
2016-08-30T04:35:39.544Z,1041.31
2016-08-30T04:36:39.542Z,1041.25
2016-08-30T04:37:39.530Z,1041.16
2016-08-30T04:38:39.530Z,1040.99
2016-08-30T04:39:39.518Z,1040.83
2016-08-30T04:40:39.513Z,1040.72
2016-08-30T04:41:39.508Z,1040.54
2016-08-30T04:42:39.606Z,1040.41
2016-08-30T04:43:39.502Z,1040.26
2016-08-30T04:44:39.491Z,1040.17
2016-08-30T04:45:39.487Z,1039.97
2016-08-30T04:46:39.481Z,1039.8
2016-08-30T04:47:39.478Z,1039.65
2016-08-30T04:48:39.472Z,1039.49
2016-08-30T04:49:39.470Z,1039.36
2016-08-30T04:50:39.466Z,1039.18
2016-08-30T04:51:39.460Z,1039
2016-08-30T04:52:39.462Z,1038.86
2016-08-30T04:53:39.452Z,1038.7
2016-08-30T04:54:39.449Z,1038.54
2016-08-30T04:55:39.451Z,1038.37
2016-08-30T04:56:39.444Z,1038.22
2016-08-30T04:57:39.439Z,1038.04
2016-08-30T04:58:39.436Z,1037.94
2016-08-30T04:59:39.438Z,1037.78
2016-08-30T05:00:39.430Z,1037.68
2016-08-30T05:01:39.430Z,1037.56
2016-08-30T05:02:39.428Z,1037.41
2016-08-30T05:03:39.429Z,1037.27
2016-08-30T05:04:39.428Z,1037.13
2016-08-30T05:05:39.421Z,1037.01
2016-08-30T05:06:39.420Z,1036.83
2016-08-30T05:07:39.419Z,1036.69
2016-08-30T05:08:39.417Z,1036.56
2016-08-30T05:09:39.418Z,1036.43
2016-08-30T05:10:39.414Z,1036.35
2016-08-30T05:11:39.867Z,1036.22
2016-08-30T05:12:40.366Z,1036.11
2016-08-30T05:13:39.418Z,1035.95
2016-08-30T05:14:39.421Z,1035.85
2016-08-30T05:15:39.580Z,1035.79
2016-08-30T05:16:39.423Z,1035.72
2016-08-30T05:17:39.417Z,1035.61
2016-08-30T05:18:39.419Z,1035.53
2016-08-30T05:19:39.427Z,1035.48
2016-08-30T05:20:39.930Z,1035.44
2016-08-30T05:21:39.425Z,1035.37
2016-08-30T05:23:39.432Z,1035.3
2016-08-30T05:24:39.432Z,1035.26
2016-08-30T05:25:40.595Z,1035.3
2016-08-30T05:26:39.596Z,1035.35
2016-08-30T05:27:40.575Z,1035.23
2016-08-30T05:28:39.449Z,1035.08
2016-08-30T05:29:39.450Z,1034.9
2016-08-30T05:30:39.453Z,1034.95
2016-08-30T05:31:39.455Z,1034.84
2016-08-30T05:32:39.465Z,1034.87
2016-08-30T05:33:39.464Z,1034.88
2016-08-30T05:34:39.473Z,1034.83
2016-08-30T05:35:39.472Z,1034.77
2016-08-30T05:36:39.482Z,1034.77
2016-08-30T05:37:39.483Z,1034.76
2016-08-30T05:38:39.490Z,1034.75
2016-08-30T05:39:39.489Z,1034.89
2016-08-30T05:40:39.493Z,1035.19
2016-08-30T05:41:39.505Z,1035.38
2016-08-30T05:42:39.513Z,1035.51
2016-08-30T05:43:39.513Z,1035.58
2016-08-30T05:44:39.573Z,1035.67
2016-08-30T05:45:39.931Z,1035.6
2016-08-30T05:46:39.531Z,1035.47
2016-08-30T05:47:39.531Z,1035.27
2016-08-30T05:48:39.532Z,1035.1
2016-08-30T05:49:39.540Z,1035.05
2016-08-30T05:50:39.542Z,1034.99
2016-08-30T05:51:39.549Z,1035.01
2016-08-30T05:52:39.552Z,1035.16
2016-08-30T05:53:39.558Z,1035.14
2016-08-30T05:57:03.551Z,1035.03
2016-08-30T05:58:03.550Z,1034.92
2016-08-30T05:59:03.558Z,1034.84
2016-08-30T06:00:05.002Z,1034.76
2016-08-30T06:01:04.118Z,1034.62
2016-08-30T06:02:03.729Z,1034.6
2016-08-30T06:03:03.587Z,1034.57
2016-08-30T06:04:03.585Z,1034.53
2016-08-30T06:05:03.813Z,1034.39
2016-08-30T06:06:03.614Z,1034.32
2016-08-30T06:08:03.611Z,1034.12
2016-08-30T06:09:06.029Z,1034.35
2016-08-30T06:10:10.528Z,1034.24
2016-08-30T06:11:03.727Z,1034.2
2016-08-30T06:12:03.645Z,1034.18
2016-08-30T06:13:03.649Z,1034.12
2016-08-30T06:14:03.649Z,1033.93
2016-08-30T06:15:06.666Z,1033.86
2016-08-30T06:16:03.671Z,1033.68
2016-08-30T06:17:03.686Z,1033.51
2016-08-30T06:18:03.676Z,1033.47
2016-08-30T06:19:03.691Z,1033.34
2016-08-30T06:20:04.335Z,1033.29
2016-08-30T06:21:03.705Z,1033.28
2016-08-30T06:22:03.757Z,1033.24
2016-08-30T06:23:03.713Z,1033.19
2016-08-30T06:24:03.728Z,1033.18
2016-08-30T06:25:03.728Z,1033.13
2016-08-30T06:26:03.737Z,1033.1
2016-08-30T06:27:03.751Z,1033.08
2016-08-30T06:28:03.755Z,1033.08
2016-08-30T06:29:04.213Z,1033.1
2016-08-30T06:30:03.771Z,1033.13
2016-08-30T06:31:04.684Z,1033.02
2016-08-30T06:32:04.639Z,1033.06
2016-08-30T06:33:03.798Z,1033.12
2016-08-30T06:34:04.757Z,1033.13
2016-08-30T06:35:04.115Z,1033.11
2016-08-30T06:36:03.829Z,1033.02
2016-08-30T06:37:03.837Z,1032.95
2016-08-30T06:38:03.846Z,1032.87
2016-08-30T06:39:03.848Z,1032.88
2016-08-30T06:40:04.509Z,1032.85
2016-08-30T06:42:03.916Z,1032.72
2016-08-30T06:43:03.935Z,1032.72
2016-08-30T06:44:04.992Z,1032.76
2016-08-30T06:45:04.257Z,1032.67
2016-08-30T06:46:03.913Z,1032.74
2016-08-30T06:47:04.730Z,1032.84
2016-08-30T06:48:03.938Z,1032.88
2016-08-30T06:49:03.941Z,1033.02
2016-08-30T06:51:03.962Z,1032.97
2016-08-30T06:52:03.976Z,1033.22
2016-08-30T06:53:03.980Z,1033.43
2016-08-30T06:54:03.994Z,1033.39
2016-08-30T06:55:03.998Z,1033.36
2016-08-30T06:56:04.008Z,1033.24
2016-08-30T06:57:04.018Z,1033.22
2016-08-30T06:58:04.029Z,1033.27
2016-08-30T06:59:04.043Z,1033.38
2016-08-30T07:00:04.049Z,1033.3
2016-08-30T07:01:04.055Z,1033.19
2016-08-30T07:02:04.068Z,1033.16
2016-08-30T07:03:04.081Z,1033.15
2016-08-30T07:04:04.087Z,1033.12
2016-08-30T07:05:04.108Z,1033.18
2016-08-30T07:06:04.105Z,1033.08
2016-08-30T07:07:04.120Z,1032.97
2016-08-30T07:08:04.127Z,1032.89
2016-08-30T07:09:04.140Z,1032.85
2016-08-30T07:10:04.144Z,1032.73
2016-08-30T07:13:04.181Z,1032.51
2016-08-30T07:14:04.186Z,1032.44
2016-08-30T07:15:04.197Z,1032.54
2016-08-30T07:16:04.210Z,1032.58
2016-08-30T07:17:04.222Z,1032.42
2016-08-30T07:18:04.227Z,1032.02
2016-08-30T07:19:04.238Z,1032.67
2016-08-30T07:20:10.548Z,1032.72
2016-08-30T07:21:04.280Z,1032.75
2016-08-30T07:22:04.274Z,1032.58
2016-08-30T07:23:04.277Z,1032.6
2016-08-30T07:24:04.291Z,1033.02
2016-08-30T07:25:07.858Z,1033.01
2016-08-30T07:26:04.775Z,1032.97
2016-08-30T07:27:04.316Z,1032.2
2016-08-30T07:28:04.329Z,1033.14
2016-08-30T07:29:04.338Z,1032.34
2016-08-30T07:30:04.349Z,1032.39
2016-08-30T07:31:04.364Z,1032.22
2016-08-30T07:32:04.368Z,1033.01
2016-08-30T07:33:04.385Z,1033.36
2016-08-30T07:35:07.356Z,1034.33
2016-08-30T07:36:04.409Z,1033.82
2016-08-30T07:37:04.420Z,1032.97
2016-08-30T07:38:04.429Z,1033.67
2016-08-30T07:40:04.448Z,1034.71
2016-08-30T07:41:04.457Z,1035.11
2016-08-30T07:42:04.471Z,1035.38
2016-08-30T07:43:04.582Z,1034.84
2016-08-30T07:44:04.488Z,1035.26
2016-08-30T07:45:04.495Z,1035.94
2016-08-30T07:46:04.506Z,1035.51
2016-08-30T07:47:05.169Z,1035.98
2016-08-30T07:48:04.523Z,1035.11
2016-08-30T07:49:04.530Z,1034.5
2016-08-30T07:50:04.539Z,1033.81
2016-08-30T07:51:04.549Z,1034.2
2016-08-30T07:52:05.584Z,1034.38
2016-08-30T07:53:04.569Z,1035.16
2016-08-30T07:54:05.889Z,1034.46
2016-08-30T07:55:04.588Z,1034.33
2016-08-30T07:56:04.990Z,1033.84
2016-08-30T07:57:04.597Z,1034.9
2016-08-30T07:58:04.608Z,1035.75
2016-08-30T07:59:04.616Z,1036.01
2016-08-30T08:00:09.183Z,1036.22
2016-08-30T08:01:04.638Z,1035.45
2016-08-30T08:02:04.795Z,1034.94
2016-08-30T08:03:05.595Z,1034.65
2016-08-30T08:05:04.672Z,1035.22
2016-08-30T08:06:04.680Z,1034.82
2016-08-30T08:08:04.690Z,1034.24
2016-08-30T08:09:04.699Z,1033.99
2016-08-30T08:10:04.706Z,1033.89
2016-08-30T08:11:04.715Z,1033.77
2016-08-30T08:12:04.729Z,1033.59
2016-08-30T08:13:04.732Z,1033.36
2016-08-30T08:14:04.739Z,1033.26
2016-08-30T08:15:04.749Z,1033.12
2016-08-30T08:16:04.763Z,1033.22
2016-08-30T08:17:04.767Z,1033.12
2016-08-30T08:18:04.773Z,1033
2016-08-30T08:19:04.785Z,1032.93
2016-08-30T08:20:04.799Z,1032.9
2016-08-30T08:21:04.800Z,1033.25
2016-08-30T08:22:04.809Z,1033.46
2016-08-30T08:23:04.823Z,1034.53
2016-08-30T08:24:04.833Z,1035.32
2016-08-30T08:25:04.835Z,1035.94
2016-08-30T08:27:04.856Z,1036.97
2016-08-30T08:28:04.858Z,1037.53
2016-08-30T08:29:04.872Z,1037.96
2016-08-30T08:30:04.874Z,1038.35
2016-08-30T08:31:04.904Z,1038.59
2016-08-30T08:32:04.893Z,1038.69
2016-08-30T08:33:04.900Z,1038.83
2016-08-30T08:34:04.900Z,1038.97
2016-08-30T08:35:04.906Z,1039.02
2016-08-30T08:36:04.912Z,1039.16
2016-08-30T08:37:04.917Z,1039.33
2016-08-30T08:38:04.924Z,1039.41
2016-08-30T08:39:04.935Z,1039.43
2016-08-30T08:42:13.144Z,1039.7
2016-08-30T08:43:12.997Z,1039.77
2016-08-30T08:44:12.946Z,1039.84
2016-08-30T08:45:15.682Z,1039.88
2016-08-30T08:46:12.804Z,1039.99
2016-08-30T08:47:12.692Z,1040.09
2016-08-30T08:48:12.690Z,1040.25
2016-08-30T08:49:12.694Z,1040.32
2016-08-30T08:51:12.698Z,1040.5
2016-08-30T08:52:12.706Z,1040.51
2016-08-30T08:53:12.707Z,1040.61
2016-08-30T08:54:12.709Z,1040.64
2016-08-30T08:55:12.738Z,1040.73
2016-08-30T08:56:12.728Z,1040.74
2016-08-30T08:57:12.716Z,1040.77
2016-08-30T08:58:12.720Z,1040.8
2016-08-30T09:00:13.119Z,1040.83
2016-08-30T09:01:12.725Z,1040.73
2016-08-30T09:02:12.723Z,1040.58
2016-08-30T09:03:12.727Z,1040.58
2016-08-30T09:04:12.727Z,1040.49
2016-08-30T09:05:13.096Z,1040.43
2016-08-30T09:06:12.732Z,1040.39
2016-08-30T09:08:12.737Z,1040.2
2016-08-30T09:09:12.739Z,1040.11
2016-08-30T09:10:13.319Z,1040.09
2016-08-30T09:11:12.738Z,1040.16
2016-08-30T09:12:13.595Z,1040.26
2016-08-30T09:13:13.718Z,1040.39
2016-08-30T09:15:12.745Z,1040.5
2016-08-30T09:16:12.746Z,1040.48
2016-08-30T09:17:12.754Z,1040.53
2016-08-30T09:18:12.752Z,1040.47
2016-08-30T09:21:13.261Z,1040.41
2016-08-30T09:22:13.615Z,1040.33
2016-08-30T09:23:12.758Z,1040.2
2016-08-30T09:24:12.765Z,1040.09
2016-08-30T09:25:12.765Z,1040.13
2016-08-30T09:26:12.764Z,1040.11
2016-08-30T09:27:12.764Z,1040.1
2016-08-30T09:28:12.767Z,1040.16
2016-08-30T09:29:12.767Z,1040.15
2016-08-30T09:31:12.772Z,1040.23
2016-08-30T09:32:12.806Z,1040.24
2016-08-30T09:33:12.773Z,1040.24
2016-08-30T09:34:12.775Z,1040.27
2016-08-30T09:35:12.778Z,1040.3
2016-08-30T09:36:12.784Z,1040.33
2016-08-30T09:37:12.791Z,1040.36
2016-08-30T09:38:12.782Z,1040.28
2016-08-30T09:39:12.782Z,1040.3
2016-08-30T09:40:12.784Z,1040.26
2016-08-30T09:41:12.785Z,1040.29
2016-08-30T09:42:12.787Z,1040.3
2016-08-30T09:44:12.801Z,1040.26
2016-08-30T09:45:12.792Z,1040.24
2016-08-30T09:46:12.798Z,1040.19
2016-08-30T09:47:12.805Z,1040.08
2016-08-30T09:48:12.803Z,1040.05
2016-08-30T09:50:12.799Z,1040.01
2016-08-30T09:51:12.806Z,1039.92
2016-08-30T09:52:12.806Z,1039.85
2016-08-30T09:53:12.810Z,1039.66
2016-08-30T09:54:12.812Z,1039.51
2016-08-30T09:55:12.965Z,1039.41
2016-08-30T09:56:12.841Z,1039.34
2016-08-30T09:58:12.812Z,1039.31
2016-08-30T09:59:12.821Z,1039.33
2016-08-30T10:00:12.824Z,1039.33
2016-08-30T10:01:12.820Z,1039.24
2016-08-30T10:02:12.822Z,1039.16
2016-08-30T10:03:12.837Z,1039.18
2016-08-30T10:04:12.827Z,1039.19
2016-08-30T10:05:12.831Z,1039.17
2016-08-30T10:06:12.834Z,1039.17
2016-08-30T10:07:12.836Z,1039.1
2016-08-30T10:08:12.842Z,1038.98
2016-08-30T10:09:12.839Z,1038.83
2016-08-30T10:10:12.842Z,1038.71
2016-08-30T10:11:12.844Z,1038.49
2016-08-30T10:12:12.847Z,1038.32
2016-08-30T10:13:12.850Z,1038.26
2016-08-30T10:14:12.853Z,1038.18
2016-08-30T10:15:12.856Z,1038.21
2016-08-30T10:16:12.860Z,1038.1
2016-08-30T10:17:12.863Z,1038.13
2016-08-30T10:18:12.870Z,1038.16
2016-08-30T10:19:12.869Z,1038.19
2016-08-30T10:20:12.875Z,1038.32
2016-08-30T10:21:12.878Z,1038.4
2016-08-30T10:22:12.881Z,1038.43
2016-08-30T10:24:12.893Z,1038.26
2016-08-30T10:25:12.900Z,1038.12
2016-08-30T10:26:12.905Z,1038.06
2016-08-30T10:27:12.903Z,1038.06
2016-08-30T10:29:12.911Z,1037.97
2016-08-30T10:30:12.916Z,1038.05
2016-08-30T10:31:12.919Z,1038.15
2016-08-30T10:32:14.323Z,1038.22
2016-08-30T10:33:12.933Z,1038.25
2016-08-30T10:34:12.969Z,1038.26
2016-08-30T10:35:12.942Z,1038.25
2016-08-30T10:36:12.941Z,1038.26
2016-08-30T10:37:13.802Z,1038.23
2016-08-30T10:38:12.949Z,1038.22
2016-08-30T10:39:12.954Z,1038.35
2016-08-30T10:40:12.964Z,1038.49
2016-08-30T10:41:13.420Z,1038.54
2016-08-30T10:42:12.967Z,1038.59
2016-08-30T10:43:13.286Z,1038.59
2016-08-30T10:45:12.986Z,1038.55
2016-08-30T10:46:12.986Z,1038.56
2016-08-30T10:47:12.989Z,1038.53
2016-08-30T10:48:12.998Z,1038.53
2016-08-30T10:49:12.997Z,1038.5
2016-08-30T10:50:13.008Z,1038.44
2016-08-30T10:51:13.012Z,1038.39
2016-08-30T10:52:13.017Z,1038.3
2016-08-30T10:53:13.137Z,1038.27
2016-08-30T10:54:13.022Z,1038.23
2016-08-30T10:55:13.022Z,1038.18
2016-08-30T10:56:13.026Z,1038.1
2016-08-30T10:57:13.031Z,1037.97
2016-08-30T10:58:13.036Z,1037.98
2016-08-30T10:59:13.041Z,1037.91
2016-08-30T11:00:13.046Z,1038.08
2016-08-30T11:01:13.048Z,1038.21
2016-08-30T11:02:13.053Z,1038.35
2016-08-30T11:03:13.056Z,1038.4
2016-08-30T11:05:13.067Z,1038.37
2016-08-30T11:06:13.074Z,1038.29
2016-08-30T11:07:13.075Z,1038.26
2016-08-30T11:08:13.078Z,1038.28
2016-08-30T11:09:13.083Z,1038.25
2016-08-30T11:10:13.092Z,1038.26
2016-08-30T11:11:13.097Z,1038.27
2016-08-30T11:14:13.103Z,1038.1
2016-08-30T11:15:13.110Z,1038.16
2016-08-30T11:16:13.123Z,1038.14
2016-08-30T11:17:13.118Z,1038.2
2016-08-30T11:18:13.123Z,1038.2
2016-08-30T11:19:13.131Z,1038.25
2016-08-30T11:20:13.132Z,1038.34
2016-08-30T11:21:13.134Z,1038.45
2016-08-30T11:22:13.138Z,1038.37
2016-08-30T11:23:13.143Z,1038.36
2016-08-30T11:24:13.149Z,1038.26
2016-08-30T11:25:13.153Z,1038.26
2016-08-30T11:27:21.565Z,1038.12
2016-08-30T11:28:21.567Z,1038.07
2016-08-30T11:29:21.577Z,1038.03
2016-08-30T11:30:21.579Z,1038
2016-08-30T11:31:21.582Z,1038.05
2016-08-30T11:32:21.584Z,1038.08
2016-08-30T11:33:21.596Z,1038.11
2016-08-30T11:34:21.593Z,1038.11
2016-08-30T11:36:21.601Z,1038.13
2016-08-30T11:37:21.606Z,1038.11
2016-08-30T11:38:21.613Z,1038.15
2016-08-30T11:39:21.615Z,1038.22
2016-08-30T11:40:21.621Z,1038.33
2016-08-30T11:41:22.681Z,1038.47
2016-08-30T11:42:21.633Z,1038.48
2016-08-30T11:43:21.630Z,1038.47
2016-08-30T11:44:21.641Z,1038.52
2016-08-30T11:45:21.645Z,1038.55
2016-08-30T11:46:22.541Z,1038.52
2016-08-30T11:47:21.647Z,1038.37
2016-08-30T11:48:21.652Z,1038.32
2016-08-30T11:49:21.664Z,1038.21
2016-08-30T11:50:22.964Z,1038.15
2016-08-30T11:51:21.670Z,1038.08
2016-08-30T11:52:21.674Z,1038.07
2016-08-30T11:53:21.847Z,1038.07
2016-08-30T11:54:21.678Z,1038.11
2016-08-30T11:55:21.681Z,1038.21
2016-08-30T11:56:21.686Z,1038.31
2016-08-30T11:57:23.162Z,1038.45
2016-08-30T11:58:21.695Z,1038.51
2016-08-30T11:59:21.706Z,1038.55
2016-08-30T12:00:21.704Z,1038.58
2016-08-30T12:01:21.713Z,1038.69
2016-08-30T12:02:21.712Z,1038.78
2016-08-30T12:03:21.720Z,1038.84
2016-08-30T12:04:21.720Z,1038.92
2016-08-30T12:05:21.723Z,1039.03
2016-08-30T12:06:21.727Z,1039.18
2016-08-30T12:07:21.729Z,1039.35
2016-08-30T12:08:21.740Z,1039.42
2016-08-30T12:09:21.736Z,1039.43
2016-08-30T12:10:21.741Z,1039.51
2016-08-30T12:11:21.744Z,1039.6
2016-08-30T12:12:21.746Z,1039.67
2016-08-30T12:13:21.750Z,1039.67
2016-08-30T12:14:21.756Z,1039.65
2016-08-30T12:15:21.775Z,1039.62
2016-08-30T12:16:21.759Z,1039.56
2016-08-30T12:17:21.770Z,1039.52
2016-08-30T12:18:21.771Z,1039.55
2016-08-30T12:19:21.767Z,1039.55
2016-08-30T12:20:21.773Z,1039.55
2016-08-30T12:21:21.775Z,1039.55
2016-08-30T12:22:21.778Z,1039.51
2016-08-30T12:23:21.778Z,1039.51
2016-08-30T12:24:21.781Z,1039.51
2016-08-30T12:25:21.784Z,1039.51
2016-08-30T12:26:21.787Z,1039.53
2016-08-30T12:27:21.790Z,1039.46
2016-08-30T12:28:21.791Z,1039.47
2016-08-30T12:29:21.795Z,1039.48
2016-08-30T12:30:21.953Z,1039.47
2016-08-30T12:31:21.798Z,1039.49
2016-08-30T12:32:21.802Z,1039.51
2016-08-30T12:33:21.806Z,1039.49
2016-08-30T12:34:21.811Z,1039.47
2016-08-30T12:35:22.209Z,1039.44
2016-08-30T12:36:21.811Z,1039.46
2016-08-30T12:37:21.816Z,1039.42
2016-08-30T12:39:21.818Z,1039.42
2016-08-30T12:40:21.821Z,1039.44
2016-08-30T12:41:21.823Z,1039.47
2016-08-30T12:42:21.825Z,1039.53
2016-08-30T12:43:21.829Z,1039.47
2016-08-30T12:44:21.837Z,1039.49
2016-08-30T12:45:21.831Z,1039.46